createdAt,value
2019-02-20T00:00:23.718Z,40.10
2019-02-20T00:03:29.561Z,40.10
2019-02-20T00:06:34.979Z,40.20
2019-02-20T00:09:40.385Z,40.20
2019-02-20T00:12:47.282Z,40.20
2019-02-20T00:15:53.390Z,40.20
2019-02-20T00:18:58.781Z,40.30
2019-02-20T00:22:04.266Z,40.20
2019-02-20T00:25:11.310Z,40.20
2019-02-20T00:28:16.838Z,40.30
2019-02-20T00:31:22.916Z,40.40
2019-02-20T00:34:29.444Z,40.30
2019-02-20T00:37:35.584Z,40.40
2019-02-20T00:40:41.233Z,40.40
2019-02-20T00:43:53.403Z,40.40
2019-02-20T00:47:14.138Z,40.40
2019-02-20T00:50:21.232Z,40.20
2019-02-20T00:53:31.252Z,40.50
2019-02-20T00:56:36.603Z,40.50
2019-02-20T00:59:42.391Z,40.50
2019-02-20T01:02:47.790Z,40.60
2019-02-20T01:05:54.419Z,40.60
2019-02-20T01:08:59.781Z,40.60
2019-02-20T01:12:05.476Z,40.60
2019-02-20T01:15:11.451Z,40.60
2019-02-20T01:18:16.845Z,40.80
2019-02-20T01:21:22.368Z,40.70
2019-02-20T01:24:28.862Z,40.70
2019-02-20T01:27:34.395Z,40.70
2019-02-20T01:30:39.768Z,40.70
2019-02-20T01:33:45.161Z,40.70
2019-02-20T01:36:50.587Z,40.80
2019-02-20T01:39:55.995Z,40.90
2019-02-20T01:43:01.387Z,40.80
2019-02-20T01:46:06.769Z,40.80
2019-02-20T01:49:14.008Z,40.80
2019-02-20T01:52:19.717Z,40.90
2019-02-20T01:55:26.688Z,40.80
2019-02-20T01:58:32.504Z,40.80
2019-02-20T02:01:37.930Z,40.90
2019-02-20T02:04:43.460Z,40.80
2019-02-20T02:07:48.862Z,40.80
2019-02-20T02:10:54.297Z,40.90
2019-02-20T02:14:01.598Z,40.90
2019-02-20T02:17:07.044Z,41.00
2019-02-20T02:20:13.921Z,41.00
2019-02-20T02:23:20.089Z,41.00
2019-02-20T02:26:25.923Z,41.00
2019-02-20T02:29:31.338Z,41.00
2019-02-20T02:32:36.817Z,41.00
2019-02-20T02:35:42.201Z,41.00
2019-02-20T02:38:49.238Z,41.10
2019-02-20T02:41:54.954Z,41.10
2019-02-20T02:45:00.463Z,41.70
2019-02-20T02:48:06.117Z,41.70
2019-02-20T02:51:11.558Z,41.00
2019-02-20T02:54:16.970Z,41.00
2019-02-20T02:57:22.370Z,41.10
2019-02-20T03:00:27.752Z,41.10
2019-02-20T03:03:33.134Z,41.10
2019-02-20T03:06:39.523Z,41.10
2019-02-20T03:09:46.606Z,41.10
2019-02-20T03:12:52.017Z,41.10
2019-02-20T03:15:57.818Z,41.10
2019-02-20T03:19:03.660Z,41.20
2019-02-20T03:22:09.412Z,41.10
2019-02-20T03:25:15.114Z,41.10
2019-02-20T03:28:20.514Z,41.10
2019-02-20T03:31:25.944Z,41.10
2019-02-20T03:34:31.333Z,41.00
2019-02-20T03:37:36.815Z,41.60
2019-02-20T03:40:44.180Z,40.90
2019-02-20T03:43:49.673Z,40.90
2019-02-20T03:46:55.403Z,40.70
2019-02-20T03:50:00.800Z,40.80
2019-02-20T03:53:08.252Z,40.60
2019-02-20T03:56:13.659Z,40.50
2019-02-20T03:59:19.160Z,40.50
2019-02-20T04:02:24.604Z,40.40
2019-02-20T04:05:31.495Z,40.70
2019-02-20T04:08:37.311Z,41.10
2019-02-20T04:11:42.671Z,40.40
2019-02-20T04:14:48.929Z,40.30
2019-02-20T04:17:54.670Z,40.10
2019-02-20T04:21:00.102Z,40.10
2019-02-20T04:24:07.316Z,40.10
2019-02-20T04:27:14.268Z,40.00
2019-02-20T04:30:19.695Z,39.90
2019-02-20T04:33:25.453Z,39.80
2019-02-20T04:36:30.853Z,39.80
2019-02-20T04:39:36.232Z,39.80
2019-02-20T04:42:42.342Z,39.80
2019-02-20T04:45:48.935Z,40.50
2019-02-20T04:48:54.353Z,39.80
2019-02-20T04:51:59.778Z,39.80
2019-02-20T04:55:08.056Z,39.80
2019-02-20T04:58:20.765Z,40.00
2019-02-20T05:01:32.519Z,39.90
2019-02-20T05:04:41.474Z,39.80
2019-02-20T05:07:46.878Z,40.00
2019-02-20T05:10:52.642Z,40.00
2019-02-20T05:13:59.621Z,40.10
2019-02-20T05:17:05.048Z,40.20
2019-02-20T05:20:10.577Z,40.10
2019-02-20T05:23:16.677Z,39.80
2019-02-20T05:26:22.145Z,40.00
2019-02-20T05:29:27.809Z,40.70
2019-02-20T05:32:33.341Z,40.00
2019-02-20T05:35:38.791Z,40.10
2019-02-20T05:38:44.158Z,40.40
2019-02-20T05:41:49.851Z,40.20
2019-02-20T05:44:55.252Z,40.00
2019-02-20T05:48:00.647Z,39.80
2019-02-20T05:51:06.276Z,39.80
2019-02-20T05:54:13.774Z,39.50
2019-02-20T05:57:20.273Z,39.40
2019-02-20T06:00:25.657Z,39.20
2019-02-20T06:03:32.890Z,39.00
2019-02-20T06:06:38.300Z,39.00
2019-02-20T06:09:43.661Z,38.70
2019-02-20T06:12:49.083Z,38.60
2019-02-20T06:15:54.480Z,38.60
2019-02-20T06:19:00.243Z,38.40
2019-02-20T06:22:05.701Z,37.90
2019-02-20T06:25:14.688Z,37.80
2019-02-20T06:28:22.140Z,37.40
2019-02-20T06:31:27.538Z,37.80
2019-02-20T06:34:35.108Z,37.60
2019-02-20T06:37:40.883Z,37.60
2019-02-20T06:40:46.293Z,37.80
2019-02-20T06:43:52.692Z,37.90
2019-02-20T06:47:00.019Z,37.90
2019-02-20T06:50:05.828Z,38.00
2019-02-20T06:53:11.998Z,38.00
2019-02-20T06:56:17.796Z,38.00
2019-02-20T06:59:24.133Z,38.10
2019-02-20T07:02:29.789Z,38.00
2019-02-20T07:05:42.741Z,38.00
2019-02-20T07:09:33.893Z,38.10
2019-02-20T07:13:30.918Z,37.90
2019-02-20T07:17:36.981Z,37.70
2019-02-20T07:21:50.465Z,36.20
2019-02-20T07:25:24.071Z,37.00
2019-02-20T07:29:41.820Z,37.20
2019-02-20T07:32:47.362Z,37.20
2019-02-20T07:35:53.283Z,37.40
2019-02-20T07:38:58.649Z,37.40
2019-02-20T07:42:04.029Z,37.50
2019-02-20T07:45:15.477Z,37.60
2019-02-20T07:48:21.197Z,37.10
2019-02-20T07:51:26.714Z,37.10
2019-02-20T07:54:32.111Z,37.30
2019-02-20T07:57:37.524Z,37.40
2019-02-20T08:00:43.979Z,37.40
2019-02-20T08:03:49.372Z,38.00
2019-02-20T08:06:54.768Z,37.60
2019-02-20T08:10:01.314Z,37.60
2019-02-20T08:13:06.855Z,37.70
2019-02-20T08:16:12.308Z,37.70
2019-02-20T08:19:18.258Z,37.70
2019-02-20T08:22:23.996Z,37.80
2019-02-20T08:25:29.875Z,37.90
2019-02-20T08:28:36.663Z,38.00
2019-02-20T08:31:44.110Z,38.00
2019-02-20T08:34:49.937Z,38.00
2019-02-20T08:37:55.347Z,38.00
2019-02-20T08:41:00.957Z,38.00
2019-02-20T08:44:06.697Z,38.10
2019-02-20T08:47:12.928Z,38.10
2019-02-20T08:50:20.553Z,38.10
2019-02-20T08:53:25.960Z,38.20
2019-02-20T08:56:31.740Z,38.30
2019-02-20T08:59:37.123Z,38.30
2019-02-20T09:02:42.975Z,37.90
2019-02-20T09:05:48.566Z,37.20
2019-02-20T09:08:54.368Z,37.50
2019-02-20T09:12:00.120Z,37.90
2019-02-20T09:15:06.040Z,37.90
2019-02-20T09:18:12.574Z,37.70
2019-02-20T09:21:18.387Z,37.90
2019-02-20T09:24:24.020Z,37.70
2019-02-20T09:27:29.414Z,37.60
2019-02-20T09:30:34.836Z,37.60
2019-02-20T09:33:52.141Z,37.40
2019-02-20T09:36:57.895Z,37.50
2019-02-20T09:40:03.517Z,37.30
2019-02-20T09:43:19.420Z,37.30
2019-02-20T09:46:28.332Z,37.30
2019-02-20T09:49:36.734Z,37.40
2019-02-20T09:52:52.466Z,37.40
2019-02-20T09:55:57.133Z,37.30
2019-02-20T09:59:02.684Z,37.30
2019-02-20T10:02:08.074Z,37.30
2019-02-20T10:05:13.731Z,37.30
2019-02-20T10:08:19.169Z,37.20
2019-02-20T10:11:24.564Z,37.20
2019-02-20T10:14:29.971Z,37.20
2019-02-20T10:17:36.679Z,37.30
2019-02-20T10:20:42.495Z,37.30
2019-02-20T10:23:50.146Z,37.30
2019-02-20T10:27:00.586Z,37.20
2019-02-20T10:30:03.437Z,37.20
2019-02-20T10:33:08.842Z,37.20
2019-02-20T10:36:14.227Z,37.20
2019-02-20T10:39:19.741Z,37.30
2019-02-20T10:42:25.363Z,37.40
2019-02-20T10:45:31.770Z,38.10
2019-02-20T10:48:37.946Z,37.60
2019-02-20T10:51:43.341Z,37.60
2019-02-20T10:54:57.568Z,37.60
2019-02-20T10:57:59.261Z,37.60
2019-02-20T11:01:04.990Z,37.70
2019-02-20T11:04:10.450Z,37.80
2019-02-20T11:07:16.497Z,37.80
2019-02-20T11:10:21.881Z,37.90
2019-02-20T11:13:27.302Z,37.90
2019-02-20T11:16:33.181Z,37.90
2019-02-20T11:19:38.574Z,37.90
2019-02-20T11:22:43.960Z,37.90
2019-02-20T11:25:49.778Z,38.00
2019-02-20T11:28:55.659Z,38.10
2019-02-20T11:32:02.277Z,38.10
2019-02-20T11:35:08.707Z,38.10
2019-02-20T11:38:14.403Z,38.10
2019-02-20T11:41:20.125Z,38.20
2019-02-20T11:44:44.551Z,38.10
2019-02-20T11:47:51.045Z,38.20
2019-02-20T11:50:57.966Z,38.20
2019-02-20T11:54:05.408Z,38.20
2019-02-20T11:57:10.833Z,38.10
2019-02-20T12:00:16.820Z,38.60
2019-02-20T12:03:22.258Z,38.80
2019-02-20T12:06:27.644Z,38.90
2019-02-20T12:09:34.934Z,39.20
2019-02-20T12:12:40.365Z,38.90
2019-02-20T12:15:46.060Z,38.60
2019-02-20T12:18:52.751Z,38.60
2019-02-20T12:21:58.163Z,38.60
2019-02-20T12:25:03.644Z,38.50
2019-02-20T12:28:09.040Z,38.40
2019-02-20T12:31:14.476Z,38.30
2019-02-20T12:34:20.291Z,38.40
2019-02-20T12:37:25.686Z,38.20
2019-02-20T12:40:31.102Z,38.50
2019-02-20T12:43:38.002Z,38.80
2019-02-20T12:46:43.416Z,39.00
2019-02-20T12:49:48.805Z,39.10
2019-02-20T12:52:54.345Z,39.60
2019-02-20T12:55:59.759Z,40.00
2019-02-20T12:59:07.729Z,39.30
2019-02-20T13:02:13.512Z,39.30
2019-02-20T13:05:20.372Z,39.20
2019-02-20T13:08:26.621Z,38.90
2019-02-20T13:11:32.784Z,38.70
2019-02-20T13:14:38.752Z,39.20
2019-02-20T13:17:45.734Z,38.30
2019-02-20T13:20:51.852Z,38.20
2019-02-20T13:23:59.069Z,38.20
2019-02-20T13:27:08.645Z,37.90
2019-02-20T13:30:12.648Z,37.80
2019-02-20T13:33:18.069Z,37.70
2019-02-20T13:36:23.495Z,38.20
2019-02-20T13:39:30.559Z,37.40
2019-02-20T13:42:36.312Z,37.30
2019-02-20T13:45:42.004Z,37.30
2019-02-20T13:48:47.563Z,37.20
2019-02-20T13:51:53.476Z,37.10
2019-02-20T13:54:59.170Z,37.10
2019-02-20T13:58:04.918Z,37.00
2019-02-20T14:01:10.845Z,36.90
2019-02-20T14:04:18.035Z,36.90
2019-02-20T14:07:23.822Z,36.80
2019-02-20T14:10:29.329Z,36.70
2019-02-20T14:13:36.693Z,36.60
2019-02-20T14:16:42.698Z,36.70
2019-02-20T14:19:48.474Z,36.60
2019-02-20T14:22:53.877Z,37.20
2019-02-20T14:26:00.577Z,36.50
2019-02-20T14:29:06.185Z,36.50
2019-02-20T14:32:12.048Z,36.50
2019-02-20T14:35:17.761Z,36.40
2019-02-20T14:38:23.141Z,36.30
2019-02-20T14:41:31.326Z,36.30
2019-02-20T14:44:37.880Z,36.30
2019-02-20T14:47:43.707Z,36.30
2019-02-20T14:50:49.679Z,36.20
2019-02-20T14:53:55.056Z,36.30
2019-02-20T14:57:00.821Z,36.30
2019-02-20T15:00:08.106Z,36.20
2019-02-20T15:03:13.553Z,36.30
2019-02-20T15:06:19.032Z,36.10
2019-02-20T15:09:25.127Z,36.20
2019-02-20T15:12:32.036Z,36.20
2019-02-20T15:15:39.265Z,36.90
2019-02-20T15:18:46.846Z,36.10
2019-02-20T15:21:52.244Z,36.10
2019-02-20T15:25:00.266Z,36.10
2019-02-20T15:28:05.730Z,36.80
2019-02-20T15:31:14.414Z,36.00
2019-02-20T15:34:19.801Z,36.00
2019-02-20T15:37:27.564Z,36.00
2019-02-20T15:40:34.782Z,36.00
2019-02-20T15:43:40.186Z,36.00
2019-02-20T15:46:45.894Z,36.10
2019-02-20T15:49:51.319Z,36.10
2019-02-20T15:52:56.763Z,36.00
2019-02-20T15:56:02.529Z,36.10
2019-02-20T15:59:09.253Z,36.70
2019-02-20T16:02:15.691Z,36.00
2019-02-20T16:05:22.754Z,36.80
2019-02-20T16:08:28.180Z,36.00
2019-02-20T16:11:33.883Z,36.50
2019-02-20T16:14:39.273Z,36.50
2019-02-20T16:17:44.937Z,36.70
2019-02-20T16:20:50.803Z,36.90
2019-02-20T16:23:56.373Z,37.00
2019-02-20T16:27:01.881Z,37.20
2019-02-20T16:30:09.150Z,37.50
2019-02-20T16:33:14.564Z,37.60
2019-02-20T16:36:20.090Z,37.80
2019-02-20T16:39:25.594Z,37.80
2019-02-20T16:42:31.017Z,38.80
2019-02-20T16:45:37.902Z,37.90
2019-02-20T16:48:43.327Z,37.80
2019-02-20T16:51:48.758Z,37.70
2019-02-20T16:54:55.083Z,37.20
2019-02-20T16:58:00.503Z,37.10
2019-02-20T17:01:08.051Z,37.10
2019-02-20T17:04:15.269Z,37.10
2019-02-20T17:07:21.690Z,36.90
2019-02-20T17:10:28.671Z,38.30
2019-02-20T17:13:34.092Z,38.50
2019-02-20T17:16:40.117Z,38.10
2019-02-20T17:19:45.540Z,38.20
2019-02-20T17:22:50.970Z,38.10
2019-02-20T17:25:56.384Z,38.10
2019-02-20T17:29:01.810Z,38.10
2019-02-20T17:32:09.167Z,38.00
2019-02-20T17:35:17.045Z,38.00
2019-02-20T17:38:22.371Z,38.00
2019-02-20T17:41:28.048Z,38.00
2019-02-20T17:44:33.446Z,38.00
2019-02-20T17:47:38.891Z,37.90
2019-02-20T17:50:44.312Z,38.00
2019-02-20T17:53:49.720Z,38.00
2019-02-20T17:56:55.216Z,38.10
2019-02-20T18:00:00.609Z,38.10
2019-02-20T18:03:07.043Z,38.10
2019-02-20T18:06:12.473Z,38.10
2019-02-20T18:09:17.948Z,38.20
2019-02-20T18:12:23.360Z,38.20
2019-02-20T18:15:28.804Z,38.20
2019-02-20T18:18:34.227Z,39.00
2019-02-20T18:21:40.773Z,38.30
2019-02-20T18:24:46.158Z,38.30
2019-02-20T18:27:55.241Z,38.30
2019-02-20T18:31:03.162Z,38.30
2019-02-20T18:34:08.563Z,38.30
2019-02-20T18:37:13.985Z,38.30
2019-02-20T18:40:23.025Z,38.40
2019-02-20T18:43:28.523Z,39.20
2019-02-20T18:46:34.236Z,39.00
2019-02-20T18:49:41.616Z,39.10
2019-02-20T18:52:47.421Z,39.20
2019-02-20T18:55:56.128Z,39.20
2019-02-20T18:59:01.690Z,39.30
2019-02-20T19:02:07.518Z,39.30
2019-02-20T19:05:14.124Z,39.30
2019-02-20T19:08:57.118Z,39.30
2019-02-20T19:12:39.042Z,39.30
2019-02-20T19:16:28.121Z,39.30
2019-02-20T19:20:41.593Z,39.50
2019-02-20T19:24:31.208Z,39.80
2019-02-20T19:27:58.532Z,39.60
2019-02-20T19:32:02.546Z,39.40
2019-02-20T19:35:37.915Z,39.30
2019-02-20T19:39:22.594Z,39.30
2019-02-20T19:43:27.355Z,39.30
2019-02-20T19:47:20.422Z,39.30
2019-02-20T19:51:25.426Z,39.30
2019-02-20T19:54:48.645Z,39.30
2019-02-20T19:58:54.422Z,39.30
2019-02-20T20:02:48.781Z,39.30
2019-02-20T20:06:51.005Z,39.30
2019-02-20T20:11:06.875Z,39.30
2019-02-20T20:15:38.758Z,39.30
2019-02-20T20:19:14.106Z,39.40
2019-02-20T20:22:58.822Z,39.40
2019-02-20T20:26:56.506Z,39.40
2019-02-20T20:31:10.108Z,39.40
2019-02-20T20:35:31.643Z,39.40
2019-02-20T20:39:36.888Z,39.30
2019-02-20T20:43:36.043Z,39.40
2019-02-20T20:47:34.521Z,39.40
2019-02-20T20:51:48.156Z,39.30
2019-02-20T20:55:49.382Z,39.20
2019-02-20T20:59:47.789Z,39.30
2019-02-20T21:03:01.791Z,39.40
2019-02-20T21:06:49.911Z,39.30
2019-02-20T21:10:38.337Z,39.30
2019-02-20T21:15:17.014Z,39.20
2019-02-20T21:18:58.892Z,39.30
2019-02-20T21:22:56.033Z,39.20
2019-02-20T21:27:15.943Z,39.30
2019-02-20T21:31:19.255Z,39.30
2019-02-20T21:35:15.097Z,39.20
2019-02-20T21:39:10.259Z,39.30
2019-02-20T21:43:11.188Z,39.30
2019-02-20T21:47:19.314Z,39.30
2019-02-20T21:50:56.598Z,39.30
2019-02-20T21:55:06.879Z,39.40
2019-02-20T21:59:08.143Z,39.40
2019-02-20T22:03:01.164Z,39.40
2019-02-20T22:07:07.694Z,39.40
2019-02-20T22:10:54.574Z,39.30
2019-02-20T22:14:46.545Z,39.40
2019-02-20T22:18:34.939Z,39.50
2019-02-20T22:22:54.389Z,39.40
2019-02-20T22:27:06.205Z,39.40
2019-02-20T22:30:56.430Z,39.40
2019-02-20T22:34:24.313Z,39.90
2019-02-20T22:38:36.501Z,39.40
2019-02-20T22:42:56.019Z,39.50
2019-02-20T22:46:45.660Z,39.80
2019-02-20T22:51:02.826Z,39.40
2019-02-20T22:54:48.248Z,39.50
2019-02-20T22:58:43.434Z,39.50
2019-02-20T23:02:34.038Z,39.50
2019-02-20T23:06:44.510Z,39.50
2019-02-20T23:10:26.647Z,39.50
2019-02-20T23:14:15.449Z,39.50
2019-02-20T23:17:20.886Z,39.50
2019-02-20T23:20:26.920Z,39.80
2019-02-20T23:23:32.340Z,39.50
2019-02-20T23:26:41.135Z,39.50
2019-02-20T23:29:47.379Z,39.50
2019-02-20T23:32:52.766Z,39.50
2019-02-20T23:36:00.022Z,39.50
2019-02-20T23:39:06.722Z,39.50
2019-02-20T23:42:12.454Z,39.50
2019-02-20T23:45:20.592Z,39.60
2019-02-20T23:48:26.017Z,39.40
2019-02-20T23:51:31.935Z,39.50
2019-02-20T23:54:38.841Z,39.50
2019-02-20T23:57:44.423Z,39.50
